createdAt,value
2023-12-23T00:02:26.571Z,97632.50
2023-12-23T00:04:54.752Z,97630.66
2023-12-23T00:07:22.477Z,97625.47
2023-12-23T00:09:50.779Z,97632.09
2023-12-23T00:12:20.362Z,97635.41
2023-12-23T00:14:48.160Z,97632.50
2023-12-23T00:17:16.269Z,97627.97
2023-12-23T00:19:44.553Z,97629.56
2023-12-23T00:22:12.392Z,97630.22
2023-12-23T00:24:40.116Z,97624.81
2023-12-23T00:27:08.099Z,97620.66
2023-12-23T00:29:37.184Z,97630.84
2023-12-23T00:32:06.372Z,97637.88
2023-12-23T00:34:34.550Z,97630.63
2023-12-23T00:37:02.364Z,97626.25
2023-12-23T00:39:30.637Z,97620.22
2023-12-23T00:41:58.599Z,97615.03
2023-12-23T00:44:26.312Z,97615.69
2023-12-23T00:46:55.455Z,97615.03
2023-12-23T00:49:23.719Z,97618.19
2023-12-23T00:51:51.567Z,97612.13
2023-12-23T00:54:20.519Z,97621.91
2023-12-23T00:56:48.622Z,97612.13
2023-12-23T00:59:16.585Z,97607.78
2023-12-23T01:01:44.364Z,97618.38
2023-12-23T01:04:13.929Z,97605.94
2023-12-23T01:06:41.753Z,97614.38
2023-12-23T01:09:09.377Z,97612.53
2023-12-23T01:11:37.948Z,97622.72
2023-12-23T01:14:06.538Z,97612.13
2023-12-23T01:16:34.204Z,97618.97
2023-12-23T01:19:02.380Z,97618.78
2023-12-23T01:21:31.594Z,97611.50
2023-12-23T01:23:59.232Z,97619.56
2023-12-23T01:26:27.815Z,97610.44
2023-12-23T01:28:56.101Z,97611.69
2023-12-23T01:31:23.802Z,97611.28
2023-12-23T01:33:52.763Z,97606.53
2023-12-23T01:36:21.028Z,97610.28
2023-12-23T01:38:50.139Z,97599.72
2023-12-23T01:41:18.282Z,97602.34
2023-12-23T01:43:46.133Z,97600.88
2023-12-23T01:46:14.072Z,97598.00
2023-12-23T01:48:45.972Z,97601.31
2023-12-23T01:51:15.354Z,97598.84
2023-12-23T01:53:44.273Z,97595.72
2023-12-23T01:56:13.996Z,97587.41
2023-12-23T01:58:43.118Z,97589.13
2023-12-23T02:01:10.889Z,97590.53
2023-12-23T02:03:39.289Z,97587.81
2023-12-23T02:06:07.336Z,97593.41
2023-12-23T02:08:35.090Z,97591.75
2023-12-23T02:11:07.029Z,97591.56
2023-12-23T02:13:44.350Z,97589.25
2023-12-23T02:16:13.931Z,97589.66
2023-12-23T02:18:42.297Z,97591.50
2023-12-23T02:21:11.798Z,97596.31
2023-12-23T02:23:40.320Z,97586.78
2023-12-23T02:26:10.427Z,97589.06
2023-12-23T02:28:40.209Z,97583.88
2023-12-23T02:31:10.060Z,97583.00
2023-12-23T02:33:38.568Z,97575.13
2023-12-23T02:36:07.297Z,97578.66
2023-12-23T02:38:36.598Z,97568.47
2023-12-23T02:41:04.318Z,97575.06
2023-12-23T02:43:32.398Z,97568.28
2023-12-23T02:46:00.104Z,97575.53
2023-12-23T02:48:28.595Z,97570.34
2023-12-23T02:50:56.654Z,97570.97
2023-12-23T02:53:24.406Z,97569.28
2023-12-23T02:55:53.971Z,97566.84
2023-12-23T02:58:22.511Z,97569.28
2023-12-23T03:00:50.197Z,97565.94
2023-12-23T03:03:19.119Z,97565.97
2023-12-23T03:05:47.090Z,97567.69
2023-12-23T03:08:15.491Z,97562.69
2023-12-23T03:10:43.521Z,97569.28
2023-12-23T03:13:13.184Z,97568.09
2023-12-23T03:15:40.538Z,97575.72
2023-12-23T03:18:08.318Z,97579.22
2023-12-23T03:20:36.803Z,97575.47
2023-12-23T03:23:04.829Z,97573.00
2023-12-23T03:25:32.665Z,97575.69
2023-12-23T03:28:00.737Z,97577.13
2023-12-23T03:30:31.194Z,97578.75
2023-12-23T03:32:58.893Z,97564.06
2023-12-23T03:35:26.932Z,97560.78
2023-12-23T03:37:54.728Z,97567.16
2023-12-23T03:40:22.437Z,97566.31
2023-12-23T03:42:51.283Z,97569.25
2023-12-23T03:45:21.435Z,97558.22
2023-12-23T03:47:50.947Z,97564.25
2023-12-23T03:50:18.753Z,97559.66
2023-12-23T03:52:46.469Z,97565.91
2023-12-23T03:55:14.281Z,97573.75
2023-12-23T03:57:44.672Z,97565.91
2023-12-23T04:00:15.869Z,97564.63
2023-12-23T04:02:43.796Z,97565.44
2023-12-23T04:05:13.092Z,97562.75
2023-12-23T04:07:40.980Z,97562.75
2023-12-23T04:10:09.506Z,97561.13
2023-12-23T04:12:37.164Z,97560.72
2023-12-23T04:15:05.853Z,97572.72
2023-12-23T04:17:33.666Z,97565.44
2023-12-23T04:20:01.652Z,97567.56
2023-12-23T04:22:31.536Z,97565.44
2023-12-23T04:24:59.290Z,97565.44
2023-12-23T04:27:27.421Z,97575.66
2023-12-23T04:29:55.152Z,97572.94
2023-12-23T04:32:22.901Z,97569.19
2023-12-23T04:34:51.157Z,97561.91
2023-12-23T04:37:19.204Z,97566.50
2023-12-23T04:39:48.559Z,97566.91
2023-12-23T04:42:16.323Z,97563.16
2023-12-23T04:44:44.575Z,97562.94
2023-12-23T04:47:12.863Z,97561.25
2023-12-23T04:49:41.753Z,97561.25
2023-12-23T04:52:09.862Z,97559.59
2023-12-23T04:54:37.548Z,97566.66
2023-12-23T04:57:07.278Z,97567.94
2023-12-23T04:59:35.600Z,97568.75
2023-12-23T05:02:04.471Z,97571.66
2023-12-23T05:04:32.532Z,97572.44
2023-12-23T05:07:00.522Z,97564.16
2023-12-23T05:09:28.192Z,97580.34
2023-12-23T05:11:56.136Z,97577.66
2023-12-23T05:14:26.114Z,97580.13
2023-12-23T05:16:53.862Z,97582.44
2023-12-23T05:19:22.729Z,97589.88
2023-12-23T05:21:51.120Z,97598.78
2023-12-23T05:24:18.928Z,97598.78
2023-12-23T05:26:46.922Z,97592.56
2023-12-23T05:29:14.928Z,97600.44
2023-12-23T05:31:44.243Z,97603.13
2023-12-23T05:34:11.968Z,97592.13
2023-12-23T05:36:40.040Z,97600.00
2023-12-23T05:39:07.734Z,97596.25
2023-12-23T05:41:35.669Z,97589.81
2023-12-23T05:44:05.344Z,97594.34
2023-12-23T05:46:34.321Z,97592.91
2023-12-23T05:49:03.492Z,97594.94
2023-12-23T05:51:31.139Z,97599.09
2023-12-23T05:53:58.897Z,97602.44
2023-12-23T05:56:26.640Z,97606.78
2023-12-23T05:58:54.372Z,97605.56
2023-12-23T06:01:22.686Z,97603.41
2023-12-23T06:03:50.467Z,97614.63
2023-12-23T06:06:19.631Z,97609.47
2023-12-23T06:08:47.967Z,97604.69
2023-12-23T06:11:15.779Z,97588.50
2023-12-23T06:13:43.456Z,97580.78
2023-12-23T06:16:11.857Z,97582.63
2023-12-23T06:18:39.627Z,97575.38
2023-12-23T06:21:07.319Z,97573.94
2023-12-23T06:23:37.075Z,97570.97
2023-12-23T06:26:05.092Z,97576.84
2023-12-23T06:28:32.765Z,97573.78
2023-12-23T06:31:01.296Z,97575.44
2023-12-23T06:33:29.157Z,97568.75
2023-12-23T06:35:56.846Z,97559.47
2023-12-23T06:38:24.827Z,97566.31
2023-12-23T06:40:55.705Z,97566.53
2023-12-23T06:43:44.950Z,97559.25
2023-12-23T06:46:11.630Z,97565.25
2023-12-23T06:48:40.188Z,97556.09
2023-12-23T06:51:08.505Z,97560.66
2023-12-23T06:53:36.896Z,97550.72
2023-12-23T06:56:08.068Z,97543.66
2023-12-23T06:58:36.249Z,97541.41
2023-12-23T07:01:04.521Z,97546.97
2023-12-23T07:03:32.297Z,97542.41
2023-12-23T07:06:00.460Z,97537.81
2023-12-23T07:08:28.269Z,97538.88
2023-12-23T07:10:56.076Z,97531.44
2023-12-23T07:13:25.252Z,97538.88
2023-12-23T07:15:53.802Z,97536.16
2023-12-23T07:18:21.632Z,97537.81
2023-12-23T07:20:49.350Z,97533.25
2023-12-23T07:23:17.678Z,97529.13
2023-12-23T07:25:45.450Z,97520.81
2023-12-23T07:28:13.210Z,97515.63
2023-12-23T07:30:43.099Z,97517.28
2023-12-23T07:33:10.565Z,97509.19
2023-12-23T07:35:38.629Z,97507.91
2023-12-23T07:38:06.831Z,97505.22
2023-12-23T07:40:36.229Z,97507.09
2023-12-23T07:43:04.350Z,97497.94
2023-12-23T07:45:33.158Z,97492.53
2023-12-23T07:48:02.779Z,97497.72
2023-12-23T07:50:30.248Z,97491.50
2023-12-23T07:52:58.230Z,97492.13
2023-12-23T07:55:25.992Z,97489.41
2023-12-23T07:57:54.094Z,97483.84
2023-12-23T08:00:22.625Z,97475.28
2023-12-23T08:02:50.608Z,97477.78
2023-12-23T08:05:20.362Z,97473.22
2023-12-23T08:07:48.826Z,97482.59
2023-12-23T08:10:16.598Z,97474.03
2023-12-23T08:12:44.584Z,97474.28
2023-12-23T08:15:13.147Z,97467.19
2023-12-23T08:17:41.644Z,97467.19
2023-12-23T08:20:10.125Z,97461.59
2023-12-23T08:22:41.210Z,97466.41
2023-12-23T08:25:09.425Z,97465.56
2023-12-23T08:27:38.721Z,97475.28
2023-12-23T08:30:07.950Z,97480.47
2023-12-23T08:32:35.889Z,97478.63
2023-12-23T08:35:04.316Z,97480.03
2023-12-23T08:37:32.709Z,97474.63
2023-12-23T08:40:01.786Z,97476.72
2023-12-23T08:42:29.785Z,97467.38
2023-12-23T08:44:57.825Z,97468.19
2023-12-23T08:47:26.066Z,97459.94
2023-12-23T08:49:53.799Z,97454.34
2023-12-23T08:52:21.926Z,97454.75
2023-12-23T08:54:49.758Z,97452.44
2023-12-23T08:57:18.875Z,97445.03
2023-12-23T08:59:46.911Z,97439.63
2023-12-23T09:02:14.676Z,97441.91
2023-12-23T09:04:42.360Z,97434.47
2023-12-23T09:07:10.414Z,97433.41
2023-12-23T09:09:40.451Z,97431.53
2023-12-23T09:12:08.639Z,97424.03
2023-12-23T09:14:38.228Z,97424.56
2023-12-23T09:17:05.612Z,97436.13
2023-12-23T09:19:33.564Z,97430.72
2023-12-23T09:22:01.519Z,97426.97
2023-12-23T09:24:29.206Z,97422.84
2023-12-23T09:26:56.912Z,97426.38
2023-12-23T09:29:25.036Z,97412.66
2023-12-23T09:31:54.239Z,97414.75
2023-12-23T09:34:22.325Z,97403.38
2023-12-23T09:36:50.713Z,97405.00
2023-12-23T09:39:18.376Z,97394.22
2023-12-23T09:41:46.464Z,97403.13
2023-12-23T09:44:15.262Z,97392.78
2023-12-23T09:46:42.957Z,97386.34
2023-12-23T09:49:12.703Z,97389.28
2023-12-23T09:51:40.964Z,97385.53
2023-12-23T09:54:11.298Z,97382.59
2023-12-23T09:56:39.614Z,97384.59
2023-12-23T09:59:09.114Z,97384.22
2023-12-23T10:01:36.737Z,97389.63
2023-12-23T10:04:04.630Z,97385.06
2023-12-23T10:06:34.563Z,97384.00
2023-12-23T10:09:01.847Z,97388.34
2023-12-23T10:11:29.522Z,97372.75
2023-12-23T10:13:58.134Z,97373.13
2023-12-23T10:16:26.058Z,97365.88
2023-12-23T10:18:54.107Z,97365.28
2023-12-23T10:21:22.312Z,97361.28
2023-12-23T10:23:51.413Z,97358.84
2023-12-23T10:26:19.405Z,97357.19
2023-12-23T10:28:55.646Z,97356.34
2023-12-23T10:31:25.539Z,97354.94
2023-12-23T10:33:55.902Z,97365.50
2023-12-23T10:36:25.902Z,97365.50
2023-12-23T10:39:03.724Z,97354.13
2023-12-23T10:41:46.865Z,97358.69
2023-12-23T10:44:15.887Z,97357.88
2023-12-23T10:46:45.862Z,97348.34
2023-12-23T10:49:14.769Z,97356.34
2023-12-23T10:51:43.907Z,97359.63
2023-12-23T10:54:13.762Z,97362.13
2023-12-23T10:56:42.395Z,97362.97
2023-12-23T10:59:11.952Z,97352.97
2023-12-23T11:01:43.543Z,97361.66
2023-12-23T11:04:11.431Z,97358.97
2023-12-23T11:06:42.769Z,97354.41
2023-12-23T11:09:13.736Z,97350.84
2023-12-23T11:11:43.095Z,97346.31
2023-12-23T11:14:10.929Z,97348.16
2023-12-23T11:16:40.529Z,97341.72
2023-12-23T11:19:09.165Z,97345.84
2023-12-23T11:21:36.861Z,97347.09
2023-12-23T11:24:35.778Z,97347.94
2023-12-23T11:27:03.668Z,97357.09
2023-12-23T11:29:31.412Z,97355.19
2023-12-23T11:32:12.659Z,97358.38
2023-12-23T11:34:41.449Z,97352.97
2023-12-23T11:37:09.044Z,97348.63
2023-12-23T11:39:39.645Z,97350.28
2023-12-23T11:42:09.158Z,97343.22
2023-12-23T11:44:38.059Z,97344.66
2023-12-23T11:47:07.073Z,97344.88
2023-12-23T11:49:35.093Z,97338.31
2023-12-23T11:52:02.885Z,97337.63
2023-12-23T11:54:31.362Z,97348.41
2023-12-23T11:57:00.491Z,97345.94
2023-12-23T11:59:28.249Z,97339.94
2023-12-23T12:01:56.821Z,97338.31
2023-12-23T12:04:25.939Z,97337.09
2023-12-23T12:06:54.018Z,97336.88
2023-12-23T12:09:22.498Z,97333.97
2023-12-23T12:11:50.247Z,97327.94
2023-12-23T12:14:19.915Z,97331.00
2023-12-23T12:16:48.344Z,97335.13
2023-12-23T12:19:17.547Z,97331.84
2023-12-23T12:21:45.777Z,97324.81
2023-12-23T12:24:14.096Z,97340.38
2023-12-23T12:26:42.908Z,97325.88
2023-12-23T12:29:10.796Z,97328.56
2023-12-23T12:31:40.384Z,97319.25
2023-12-23T12:34:08.050Z,97321.63
2023-12-23T12:36:36.031Z,97316.84
2023-12-23T12:39:04.454Z,97323.06
2023-12-23T12:41:32.154Z,97327.41
2023-12-23T12:44:00.197Z,97322.22
2023-12-23T12:46:30.641Z,97319.31
2023-12-23T12:49:01.984Z,97322.81
2023-12-23T12:51:30.140Z,97317.19
2023-12-23T12:53:58.113Z,97318.03
2023-12-23T12:56:25.775Z,97308.31
2023-12-23T12:58:54.754Z,97307.00
2023-12-23T13:01:22.880Z,97301.22
2023-12-23T13:03:50.743Z,97307.25
2023-12-23T13:06:20.240Z,97307.00
2023-12-23T13:08:48.090Z,97299.72
2023-12-23T13:11:15.789Z,97294.34
2023-12-23T13:13:44.170Z,97298.09
2023-12-23T13:16:13.982Z,97293.50
2023-12-23T13:18:49.282Z,97286.19
2023-12-23T13:21:26.327Z,97294.44
2023-12-23T13:23:54.134Z,97286.09
2023-12-23T13:26:21.867Z,97284.00
2023-12-23T13:28:52.551Z,97281.31
2023-12-23T13:31:21.486Z,97283.75
2023-12-23T13:33:49.228Z,97277.28
2023-12-23T13:36:17.680Z,97278.09
2023-12-23T13:38:46.812Z,97279.06
2023-12-23T13:41:14.910Z,97287.50
2023-12-23T13:43:43.025Z,97291.84
2023-12-23T13:46:10.700Z,97295.13
2023-12-23T13:48:39.132Z,97281.91
2023-12-23T13:51:07.361Z,97288.34
2023-12-23T13:53:35.011Z,97286.94
2023-12-23T13:56:04.895Z,97285.66
2023-12-23T13:58:32.621Z,97285.66
2023-12-23T14:01:00.280Z,97288.78
2023-12-23T14:03:28.282Z,97295.63
2023-12-23T14:05:58.748Z,97291.28
2023-12-23T14:08:26.649Z,97287.72
2023-12-23T14:10:54.319Z,97295.03
2023-12-23T14:13:23.840Z,97291.13
2023-12-23T14:15:51.595Z,97285.03
2023-12-23T14:18:19.292Z,97292.53
2023-12-23T14:20:47.384Z,97279.88
2023-12-23T14:23:15.143Z,97287.72
2023-12-23T14:25:42.792Z,97287.50
2023-12-23T14:28:11.139Z,97279.88
2023-12-23T14:30:40.861Z,97284.00
2023-12-23T14:33:08.925Z,97287.16
2023-12-23T14:35:36.964Z,97282.81
2023-12-23T14:38:05.057Z,97284.22
2023-12-23T14:40:33.098Z,97289.41
2023-12-23T14:43:01.118Z,97287.88
2023-12-23T14:45:29.208Z,97292.22
2023-12-23T14:47:59.120Z,97299.22
2023-12-23T14:50:27.374Z,97287.28
2023-12-23T14:52:55.411Z,97287.28
2023-12-23T14:55:23.743Z,97287.28
2023-12-23T14:57:51.882Z,97275.66
2023-12-23T15:00:19.901Z,97273.22
2023-12-23T15:02:47.949Z,97281.31
2023-12-23T15:05:17.741Z,97280.09
2023-12-23T15:07:45.568Z,97274.50
2023-12-23T15:10:13.299Z,97286.09
2023-12-23T15:12:42.163Z,97278.00
2023-12-23T15:15:11.419Z,97287.16
2023-12-23T15:17:39.404Z,97281.84
2023-12-23T15:20:09.255Z,97290.69
2023-12-23T15:22:38.535Z,97291.13
2023-12-23T15:25:07.340Z,97291.50
2023-12-23T15:27:35.377Z,97281.94
2023-12-23T15:30:03.278Z,97278.88
2023-12-23T15:32:30.974Z,97283.97
2023-12-23T15:34:59.391Z,97281.03
2023-12-23T15:37:27.150Z,97282.06
2023-12-23T15:39:56.400Z,97281.03
2023-12-23T15:42:24.807Z,97273.97
2023-12-23T15:44:52.695Z,97279.16
2023-12-23T15:47:21.097Z,97280.00
2023-12-23T15:49:49.230Z,97269.78
2023-12-23T15:52:17.005Z,97268.13
2023-12-23T15:54:45.947Z,97274.13
2023-12-23T15:57:15.083Z,97268.13
2023-12-23T15:59:42.780Z,97264.13
2023-12-23T16:02:10.759Z,97272.22
2023-12-23T16:04:38.736Z,97264.81
2023-12-23T16:07:06.522Z,97270.97
2023-12-23T16:09:34.217Z,97262.50
2023-12-23T16:12:02.239Z,97262.50
2023-12-23T16:14:31.429Z,97269.31
2023-12-23T16:16:59.497Z,97244.44
2023-12-23T16:19:27.472Z,97247.94
2023-12-23T16:21:56.162Z,97243.59
2023-12-23T16:24:24.223Z,97238.22
2023-12-23T16:26:51.983Z,97240.53
2023-12-23T16:29:20.584Z,97241.28
2023-12-23T16:31:49.854Z,97233.06
2023-12-23T16:34:17.889Z,97238.00
2023-12-23T16:36:46.086Z,97241.16
2023-12-23T16:39:13.879Z,97230.38
2023-12-23T16:41:42.022Z,97232.59
2023-12-23T16:44:09.796Z,97232.97
2023-12-23T16:46:37.495Z,97231.91
2023-12-23T16:49:06.921Z,97230.94
2023-12-23T16:51:34.604Z,97229.91
2023-12-23T16:54:02.241Z,97227.56
2023-12-23T16:56:30.765Z,97223.22
2023-12-23T16:58:58.578Z,97217.47
2023-12-23T17:01:26.608Z,97225.91
2023-12-23T17:03:55.609Z,97225.66
2023-12-23T17:06:24.790Z,97234.22
2023-12-23T17:08:52.814Z,97233.19
2023-12-23T17:11:21.533Z,97221.78
2023-12-23T17:13:49.201Z,97219.94
2023-12-23T17:16:17.855Z,97228.03
2023-12-23T17:18:46.259Z,97218.03
2023-12-23T17:21:14.152Z,97229.31
2023-12-23T17:23:43.634Z,97224.28
2023-12-23T17:26:11.968Z,97228.25
2023-12-23T17:28:39.737Z,97227.19
2023-12-23T17:31:07.743Z,97224.72
2023-12-23T17:33:36.181Z,97222.38
2023-12-23T17:36:04.102Z,97218.16
2023-12-23T17:38:32.824Z,97221.66
2023-12-23T17:41:02.532Z,97217.94
2023-12-23T17:43:30.263Z,97211.69
2023-12-23T17:45:57.994Z,97212.53
2023-12-23T17:48:26.053Z,97212.88
2023-12-23T17:50:53.708Z,97224.72
2023-12-23T17:53:24.399Z,97208.31
2023-12-23T17:55:53.521Z,97199.03
2023-12-23T17:58:22.658Z,97199.63
2023-12-23T18:00:50.405Z,97200.69
2023-12-23T18:03:18.590Z,97201.50
2023-12-23T18:05:46.368Z,97207.94
2023-12-23T18:08:14.922Z,97199.63
2023-12-23T18:10:43.255Z,97203.13
2023-12-23T18:13:10.929Z,97188.84
2023-12-23T18:15:40.058Z,97184.94
2023-12-23T18:18:08.384Z,97187.19
2023-12-23T18:20:36.146Z,97184.03
2023-12-23T18:23:04.312Z,97187.56
2023-12-23T18:25:32.635Z,97182.00
2023-12-23T18:28:00.268Z,97183.19
2023-12-23T18:30:28.231Z,97171.00
2023-12-23T18:32:58.218Z,97173.22
2023-12-23T18:35:26.193Z,97169.94
2023-12-23T18:37:54.003Z,97165.13
2023-12-23T18:40:22.151Z,97162.78
2023-12-23T18:42:49.993Z,97160.78
2023-12-23T18:45:18.045Z,97156.09
2023-12-23T18:47:46.591Z,97146.25
2023-12-23T18:50:16.272Z,97142.97
2023-12-23T18:52:43.561Z,97138.97
2023-12-23T18:55:11.808Z,97132.97
2023-12-23T18:57:39.441Z,97125.94
2023-12-23T19:00:08.889Z,97123.00
2023-12-23T19:02:37.426Z,97119.84
2023-12-23T19:05:05.906Z,97108.09
2023-12-23T19:07:35.465Z,97102.50
2023-12-23T19:10:03.931Z,97107.88
2023-12-23T19:12:31.562Z,97090.50
2023-12-23T19:15:00.064Z,97093.44
2023-12-23T19:17:30.627Z,97093.34
2023-12-23T19:19:58.338Z,97090.84
2023-12-23T19:22:26.865Z,97085.25
2023-12-23T19:24:56.677Z,97080.66
2023-12-23T19:27:24.383Z,97078.78
2023-12-23T19:29:52.170Z,97074.44
2023-12-23T19:32:20.313Z,97088.41
2023-12-23T19:34:47.971Z,97082.75
2023-12-23T19:37:15.971Z,97076.31
2023-12-23T19:39:52.202Z,97079.84
2023-12-23T19:42:28.824Z,97084.41
2023-12-23T19:44:56.911Z,97087.81
2023-12-23T19:47:24.727Z,97089.44
2023-12-23T19:49:53.253Z,97085.47
2023-12-23T19:52:21.353Z,97092.97
2023-12-23T19:54:49.068Z,97095.19
2023-12-23T19:57:16.902Z,97101.28
2023-12-23T19:59:46.760Z,97100.59
2023-12-23T20:02:14.549Z,97100.22
2023-12-23T20:04:42.254Z,97095.44
2023-12-23T20:07:10.413Z,97097.44
2023-12-23T20:09:38.568Z,97089.34
2023-12-23T20:12:07.284Z,97089.91
2023-12-23T20:14:35.653Z,97079.59
2023-12-23T20:17:05.399Z,97085.22
2023-12-23T20:19:32.748Z,97090.16
2023-12-23T20:22:00.758Z,97084.75
2023-12-23T20:24:28.512Z,97081.59
2023-12-23T20:26:56.191Z,97082.66
2023-12-23T20:29:24.321Z,97084.53
2023-12-23T20:31:52.123Z,97071.88
2023-12-23T20:34:21.491Z,97072.69
2023-12-23T20:36:49.964Z,97069.16
2023-12-23T20:39:26.395Z,97070.22
2023-12-23T20:41:56.602Z,97062.38
2023-12-23T20:44:24.431Z,97059.66
2023-12-23T20:46:52.707Z,97055.91
2023-12-23T20:49:23.298Z,97057.19
2023-12-23T20:51:51.020Z,97056.13
2023-12-23T20:54:18.635Z,97049.94
2023-12-23T20:56:46.728Z,97048.28
2023-12-23T20:59:14.585Z,97051.78
2023-12-23T21:01:42.267Z,97052.63
2023-12-23T21:04:10.677Z,97051.78
2023-12-23T21:06:39.885Z,97056.38
2023-12-23T21:09:07.704Z,97048.03
2023-12-23T21:11:36.195Z,97041.84
2023-12-23T21:14:04.065Z,97044.19
2023-12-23T21:16:31.840Z,97049.34
2023-12-23T21:19:00.049Z,97052.50
2023-12-23T21:21:27.955Z,97054.50
2023-12-23T21:23:57.117Z,97044.03
2023-12-23T21:26:25.172Z,97051.22
2023-12-23T21:28:53.006Z,97048.50
2023-12-23T21:31:20.753Z,97048.50
2023-12-23T21:33:48.853Z,97043.34
2023-12-23T21:36:16.769Z,97035.03
2023-12-23T21:38:44.734Z,97036.66
2023-12-23T21:41:14.272Z,97044.53
2023-12-23T21:43:41.597Z,97033.50
2023-12-23T21:46:09.613Z,97035.88
2023-12-23T21:48:38.116Z,97027.50
2023-12-23T21:51:06.120Z,97030.22
2023-12-23T21:53:34.288Z,97035.88
2023-12-23T21:56:02.380Z,97027.78
2023-12-23T21:58:31.593Z,97029.63
2023-12-23T22:00:59.615Z,97031.50
2023-12-23T22:03:27.751Z,97028.00
2023-12-23T22:05:55.527Z,97028.22
2023-12-23T22:08:23.869Z,97025.88
2023-12-23T22:10:51.952Z,97022.38
2023-12-23T22:13:19.723Z,97019.06
2023-12-23T22:15:49.653Z,97018.63
2023-12-23T22:18:17.509Z,97023.06
2023-12-23T22:20:45.366Z,97033.75
2023-12-23T22:23:13.384Z,97031.84
2023-12-23T22:25:41.518Z,97034.31
2023-12-23T22:28:09.270Z,97031.41
2023-12-23T22:30:37.067Z,97020.59
2023-12-23T22:33:06.938Z,97014.38
2023-12-23T22:35:34.806Z,97013.31
2023-12-23T22:38:02.888Z,97021.66
2023-12-23T22:40:30.787Z,97033.84
2023-12-23T22:42:58.550Z,97022.47
2023-12-23T22:45:26.940Z,97010.03
2023-12-23T22:47:55.210Z,97006.88
2023-12-23T22:50:24.591Z,96996.91
2023-12-23T22:52:52.350Z,97004.16
2023-12-23T22:55:20.251Z,96992.78
2023-12-23T22:57:47.963Z,97005.22
2023-12-23T23:00:16.447Z,96998.53
2023-12-23T23:02:44.478Z,96992.78
2023-12-23T23:05:12.604Z,96989.63
2023-12-23T23:07:41.720Z,97002.06
2023-12-23T23:10:11.060Z,97003.09
2023-12-23T23:12:38.832Z,97003.34
2023-12-23T23:15:07.324Z,97008.03
2023-12-23T23:17:35.867Z,96998.31
2023-12-23T23:20:03.846Z,96992.66
2023-12-23T23:22:31.988Z,96996.69
2023-12-23T23:25:01.915Z,96992.91
2023-12-23T23:27:29.631Z,96982.69
2023-12-23T23:29:57.623Z,96981.06
2023-12-23T23:32:26.028Z,96984.56
2023-12-23T23:35:01.212Z,96991.03
2023-12-23T23:37:36.322Z,96976.47
2023-12-23T23:40:06.513Z,96981.88
2023-12-23T23:42:34.519Z,96975.66
2023-12-23T23:45:02.461Z,96969.22
2023-12-23T23:47:30.270Z,96968.97
2023-12-23T23:49:58.667Z,96962.19
2023-12-23T23:52:27.694Z,96959.00
2023-12-23T23:54:55.777Z,96955.25
2023-12-23T23:57:25.051Z,96951.13
2023-12-23T23:59:52.761Z,96948.69
